createdAt,value
2023-03-16T00:00:13.864Z,-1.26
2023-03-16T00:02:42.630Z,-1.31
2023-03-16T00:05:13.305Z,-1.36
2023-03-16T00:07:42.040Z,-1.35
2023-03-16T00:10:10.136Z,-1.29
2023-03-16T00:12:36.631Z,-1.35
2023-03-16T00:15:04.618Z,-1.33
2023-03-16T00:17:31.531Z,-1.32
2023-03-16T00:19:58.190Z,-1.36
2023-03-16T00:22:29.917Z,-1.37
2023-03-16T00:24:57.048Z,-1.41
2023-03-16T00:27:25.530Z,-1.50
2023-03-16T00:29:56.391Z,-1.47
2023-03-16T00:32:30.297Z,-1.53
2023-03-16T00:34:57.086Z,-1.55
2023-03-16T00:37:25.962Z,-1.54
2023-03-16T00:39:56.289Z,-1.55
2023-03-16T00:42:29.466Z,-1.58
2023-03-16T00:45:00.474Z,-1.63
2023-03-16T00:47:32.836Z,-1.64
2023-03-16T00:50:01.108Z,-1.71
2023-03-16T00:52:28.949Z,-1.70
2023-03-16T00:54:56.315Z,-1.72
2023-03-16T00:57:25.392Z,-1.70
2023-03-16T00:59:53.172Z,-1.71
2023-03-16T01:02:23.650Z,-1.79
2023-03-16T01:04:51.965Z,-1.81
2023-03-16T01:07:18.798Z,-1.78
2023-03-16T01:09:45.757Z,-1.80
2023-03-16T01:12:15.853Z,-1.89
2023-03-16T01:14:45.960Z,-1.84
2023-03-16T01:17:14.053Z,-1.84
2023-03-16T01:19:41.600Z,-1.82
2023-03-16T01:22:09.896Z,-1.94
2023-03-16T01:24:37.893Z,-1.93
2023-03-16T01:27:05.507Z,-1.92
2023-03-16T01:29:33.081Z,-1.99
2023-03-16T01:32:00.645Z,-1.98
2023-03-16T01:34:27.285Z,-1.98
2023-03-16T01:36:54.121Z,-2.04
2023-03-16T01:39:20.627Z,-2.02
2023-03-16T01:41:47.842Z,-2.11
2023-03-16T01:44:20.246Z,-2.16
2023-03-16T01:46:46.732Z,-2.09
2023-03-16T01:49:30.360Z,-2.12
2023-03-16T01:52:01.411Z,-2.24
2023-03-16T01:54:46.980Z,-2.25
2023-03-16T01:57:20.411Z,-2.26
2023-03-16T02:00:11.157Z,-2.22
2023-03-16T02:02:43.766Z,-2.26
2023-03-16T02:05:19.738Z,-2.30
2023-03-16T02:07:51.391Z,-2.30
2023-03-16T02:10:20.396Z,-2.26
2023-03-16T02:12:47.487Z,-2.30
2023-03-16T02:15:15.171Z,-2.30
2023-03-16T02:17:44.240Z,-2.31
2023-03-16T02:20:19.955Z,-2.29
2023-03-16T02:22:48.797Z,-2.40
2023-03-16T02:25:18.488Z,-2.40
2023-03-16T02:28:10.857Z,-2.44
2023-03-16T02:30:37.419Z,-2.37
2023-03-16T02:33:05.306Z,-2.40
2023-03-16T02:35:32.435Z,-2.41
2023-03-16T02:37:59.156Z,-2.47
2023-03-16T02:40:30.310Z,-2.42
2023-03-16T02:43:17.273Z,-2.44
2023-03-16T02:45:48.980Z,-2.44
2023-03-16T02:48:24.353Z,-2.47
2023-03-16T02:50:53.553Z,-2.46
2023-03-16T02:53:21.316Z,-2.47
2023-03-16T02:55:47.854Z,-2.62
2023-03-16T02:58:15.178Z,-2.54
2023-03-16T03:00:46.198Z,-2.55
2023-03-16T03:03:14.214Z,-2.65
2023-03-16T03:05:40.933Z,-2.62
2023-03-16T03:08:07.698Z,-2.61
2023-03-16T03:10:34.483Z,-2.67
2023-03-16T03:13:01.164Z,-2.64
2023-03-16T03:15:27.891Z,-2.63
2023-03-16T03:17:54.359Z,-2.68
2023-03-16T03:20:21.748Z,-2.64
2023-03-16T03:22:52.873Z,-2.69
2023-03-16T03:25:21.184Z,-2.66
2023-03-16T03:27:50.217Z,-2.63
2023-03-16T03:30:20.060Z,-2.63
2023-03-16T03:32:46.636Z,-2.58
2023-03-16T03:35:15.166Z,-2.56
2023-03-16T03:37:42.837Z,-2.56
2023-03-16T03:40:11.755Z,-2.53
2023-03-16T03:42:39.457Z,-2.54
2023-03-16T03:45:07.996Z,-2.51
2023-03-16T03:47:34.954Z,-2.55
2023-03-16T03:50:01.563Z,-2.60
2023-03-16T03:52:28.743Z,-2.54
2023-03-16T03:54:55.424Z,-2.52
2023-03-16T03:57:22.078Z,-2.41
2023-03-16T03:59:48.610Z,-2.45
2023-03-16T04:02:15.551Z,-2.49
2023-03-16T04:04:42.786Z,-2.39
2023-03-16T04:07:09.629Z,-2.33
2023-03-16T04:09:36.342Z,-2.29
2023-03-16T04:12:05.002Z,-2.25
2023-03-16T04:14:32.052Z,-2.26
2023-03-16T04:16:58.642Z,-2.28
2023-03-16T04:19:26.032Z,-2.19
2023-03-16T04:21:52.854Z,-2.15
2023-03-16T04:24:19.688Z,-2.14
2023-03-16T04:26:46.522Z,-2.15
2023-03-16T04:29:18.032Z,-2.11
2023-03-16T04:31:45.426Z,-2.13
2023-03-16T04:34:13.582Z,-2.09
2023-03-16T04:36:42.181Z,-2.06
2023-03-16T04:39:10.475Z,-2.10
2023-03-16T04:41:37.458Z,-2.15
2023-03-16T04:44:04.813Z,-2.17
2023-03-16T04:46:32.757Z,-2.15
2023-03-16T04:48:59.271Z,-2.14
2023-03-16T04:51:26.997Z,-2.25
2023-03-16T04:53:54.082Z,-2.22
2023-03-16T04:56:21.234Z,-2.16
2023-03-16T04:58:50.176Z,-2.13
2023-03-16T05:01:18.664Z,-2.13
2023-03-16T05:03:45.689Z,-2.14
2023-03-16T05:06:12.591Z,-2.05
2023-03-16T05:08:40.818Z,-2.06
2023-03-16T05:11:07.588Z,-2.01
2023-03-16T05:13:34.421Z,-1.93
2023-03-16T05:16:00.976Z,-1.89
2023-03-16T05:18:30.240Z,-1.90
2023-03-16T05:20:57.178Z,-1.83
2023-03-16T05:23:24.035Z,-1.81
2023-03-16T05:25:50.868Z,-1.79
2023-03-16T05:28:17.413Z,-1.73
2023-03-16T05:30:45.396Z,-1.73
2023-03-16T05:33:12.574Z,-1.75
2023-03-16T05:35:39.345Z,-1.73
2023-03-16T05:38:06.661Z,-1.69
2023-03-16T05:40:33.426Z,-1.66
2023-03-16T05:43:00.639Z,-1.64
2023-03-16T05:45:28.093Z,-1.64
2023-03-16T05:47:54.630Z,-1.57
2023-03-16T05:50:21.394Z,-1.60
2023-03-16T05:52:49.220Z,-1.61
2023-03-16T05:55:17.497Z,-1.60
2023-03-16T05:57:44.534Z,-1.60
2023-03-16T06:00:19.698Z,-1.56
2023-03-16T06:02:49.516Z,-1.49
2023-03-16T06:05:20.794Z,-1.48
2023-03-16T06:07:48.405Z,-1.48
2023-03-16T06:10:15.004Z,-1.49
2023-03-16T06:12:42.116Z,-1.53
2023-03-16T06:15:10.324Z,-1.49
2023-03-16T06:17:38.412Z,-1.44
2023-03-16T06:20:11.342Z,-1.46
2023-03-16T06:22:39.745Z,-1.45
2023-03-16T06:25:08.011Z,-1.52
2023-03-16T06:27:34.534Z,-1.48
2023-03-16T06:30:01.611Z,-1.46
2023-03-16T06:32:28.591Z,-1.25
2023-03-16T06:34:55.857Z,-1.29
2023-03-16T06:37:22.342Z,-1.31
2023-03-16T06:39:48.861Z,-1.15
2023-03-16T06:42:15.601Z,-1.09
2023-03-16T06:44:43.157Z,-0.90
2023-03-16T06:47:10.649Z,-0.95
2023-03-16T06:49:37.592Z,-0.99
2023-03-16T06:52:04.116Z,-0.90
2023-03-16T06:54:32.501Z,-0.82
2023-03-16T06:56:59.106Z,-0.94
2023-03-16T06:59:25.681Z,-0.99
2023-03-16T07:01:52.195Z,-1.00
2023-03-16T07:04:18.771Z,-0.93
2023-03-16T07:06:45.345Z,-0.68
2023-03-16T07:09:12.586Z,-0.71
2023-03-16T07:11:40.134Z,-0.77
2023-03-16T07:14:06.720Z,-0.75
2023-03-16T07:16:33.474Z,-0.75
2023-03-16T07:18:59.927Z,-0.81
2023-03-16T07:21:26.391Z,-0.83
2023-03-16T07:23:52.924Z,-0.84
2023-03-16T07:26:19.969Z,-0.96
2023-03-16T07:28:46.593Z,-0.92
2023-03-16T07:31:14.778Z,-0.92
2023-03-16T07:33:41.298Z,-1.02
2023-03-16T07:36:10.728Z,-0.86
2023-03-16T07:38:37.739Z,-0.91
2023-03-16T07:41:04.371Z,-0.93
2023-03-16T07:43:31.067Z,-0.92
2023-03-16T07:45:57.754Z,-0.77
2023-03-16T07:48:24.493Z,-0.76
2023-03-16T07:50:51.017Z,-0.78
2023-03-16T07:53:17.826Z,-0.99
2023-03-16T07:55:44.765Z,-0.88
2023-03-16T07:58:12.141Z,-0.89
2023-03-16T08:00:39.757Z,-0.89
2023-03-16T08:03:06.913Z,-1.03
2023-03-16T08:05:33.608Z,-0.98
2023-03-16T08:08:01.816Z,-1.05
2023-03-16T08:10:29.507Z,-1.03
2023-03-16T08:12:56.354Z,-0.76
2023-03-16T08:15:23.806Z,-0.73
2023-03-16T08:17:50.421Z,-0.52
2023-03-16T08:20:16.974Z,-0.71
2023-03-16T08:22:46.486Z,-0.72
2023-03-16T08:25:16.205Z,-0.73
2023-03-16T08:27:43.324Z,-0.67
2023-03-16T08:30:11.853Z,-0.63
2023-03-16T08:32:41.931Z,-0.39
2023-03-16T08:35:11.134Z,-0.14
2023-03-16T08:37:37.653Z,-0.13
2023-03-16T08:40:06.754Z,-0.23
2023-03-16T08:42:33.288Z,0.10
2023-03-16T08:45:01.006Z,0.02
2023-03-16T08:47:27.585Z,0.24
2023-03-16T08:49:54.036Z,0.24
2023-03-16T08:52:21.001Z,0.20
2023-03-16T08:55:02.050Z,0.51
2023-03-16T08:57:29.735Z,0.82
2023-03-16T08:59:56.172Z,0.98
2023-03-16T09:02:22.657Z,0.65
2023-03-16T09:04:50.509Z,0.65
2023-03-16T09:07:17.105Z,0.73
2023-03-16T09:09:44.045Z,0.81
2023-03-16T09:12:11.406Z,0.89
2023-03-16T09:14:38.774Z,1.34
2023-03-16T09:17:08.849Z,1.25
2023-03-16T09:19:53.201Z,1.21
2023-03-16T09:22:21.432Z,1.09
2023-03-16T09:24:48.934Z,1.33
2023-03-16T09:27:16.031Z,1.60
2023-03-16T09:29:43.404Z,1.48
2023-03-16T09:32:10.273Z,1.72
2023-03-16T09:34:37.126Z,1.77
2023-03-16T09:37:03.793Z,1.82
2023-03-16T09:39:30.280Z,2.29
2023-03-16T09:42:24.326Z,2.31
2023-03-16T09:45:06.213Z,2.13
2023-03-16T09:47:36.030Z,2.46
2023-03-16T09:50:08.699Z,2.50
2023-03-16T09:52:44.765Z,2.24
2023-03-16T09:55:25.363Z,2.18
2023-03-16T09:57:53.527Z,2.26
2023-03-16T10:00:21.746Z,2.35
2023-03-16T10:03:16.043Z,2.66
2023-03-16T10:05:42.521Z,2.68
2023-03-16T10:08:14.016Z,2.41
2023-03-16T10:11:03.541Z,2.72
2023-03-16T10:13:37.500Z,3.09
2023-03-16T10:16:17.736Z,3.30
2023-03-16T10:18:49.704Z,3.63
2023-03-16T10:21:20.945Z,3.65
2023-03-16T10:23:49.794Z,4.13
2023-03-16T10:26:23.020Z,4.08
2023-03-16T10:28:49.551Z,4.54
2023-03-16T10:31:18.753Z,4.46
2023-03-16T10:33:46.146Z,5.17
2023-03-16T10:36:25.422Z,5.83
2023-03-16T10:39:00.231Z,5.45
2023-03-16T10:41:38.496Z,5.21
2023-03-16T10:44:28.592Z,6.09
2023-03-16T10:47:08.548Z,6.32
2023-03-16T10:49:44.342Z,6.49
2023-03-16T10:52:19.893Z,6.29
2023-03-16T10:55:01.351Z,6.99
2023-03-16T10:57:33.707Z,7.16
2023-03-16T11:00:21.533Z,7.50
2023-03-16T11:02:49.392Z,6.87
2023-03-16T11:05:25.799Z,7.79
2023-03-16T11:08:09.414Z,7.85
2023-03-16T11:10:49.305Z,7.71
2023-03-16T11:13:21.232Z,8.57
2023-03-16T11:15:58.945Z,7.36
2023-03-16T11:18:33.197Z,8.35
2023-03-16T11:21:08.199Z,8.70
2023-03-16T11:23:39.174Z,8.82
2023-03-16T11:26:15.558Z,8.01
2023-03-16T11:28:54.585Z,8.16
2023-03-16T11:31:33.817Z,8.80
2023-03-16T11:34:01.587Z,7.79
2023-03-16T11:36:44.589Z,8.21
2023-03-16T11:39:40.636Z,7.86
2023-03-16T11:42:36.726Z,7.10
2023-03-16T11:45:17.376Z,7.14
2023-03-16T11:47:56.190Z,8.33
2023-03-16T11:50:30.167Z,8.86
2023-03-16T11:53:18.384Z,7.93
2023-03-16T11:55:57.228Z,8.71
2023-03-16T11:58:57.441Z,8.94
2023-03-16T12:02:10.960Z,10.14
2023-03-16T12:04:40.931Z,9.91
2023-03-16T12:07:22.754Z,10.47
2023-03-16T12:09:58.199Z,10.05
2023-03-16T12:12:37.645Z,9.45
2023-03-16T12:15:24.268Z,9.45
2023-03-16T12:17:55.630Z,10.37
2023-03-16T12:20:31.886Z,9.86
2023-03-16T12:23:06.171Z,8.70
2023-03-16T12:25:38.132Z,9.08
2023-03-16T12:28:11.131Z,9.40
2023-03-16T12:30:53.295Z,9.55
2023-03-16T12:33:58.134Z,9.69
2023-03-16T12:36:49.319Z,10.38
2023-03-16T12:39:35.814Z,9.84
2023-03-16T12:42:30.134Z,11.28
2023-03-16T12:45:02.378Z,9.74
2023-03-16T12:47:50.451Z,10.28
2023-03-16T12:50:19.373Z,9.60
2023-03-16T12:52:50.197Z,10.96
2023-03-16T12:55:23.592Z,11.97
2023-03-16T12:57:58.651Z,10.02
2023-03-16T13:00:35.787Z,10.34
2023-03-16T13:03:03.508Z,10.25
2023-03-16T13:05:34.724Z,10.09
2023-03-16T13:08:21.216Z,10.15
2023-03-16T13:11:11.179Z,9.47
2023-03-16T13:13:52.646Z,9.62
2023-03-16T13:16:27.362Z,9.92
2023-03-16T13:18:54.887Z,9.84
2023-03-16T13:21:41.043Z,9.41
2023-03-16T13:24:35.041Z,9.61
2023-03-16T13:27:06.410Z,9.92
2023-03-16T13:29:33.922Z,9.50
2023-03-16T13:32:06.714Z,9.84
2023-03-16T13:34:39.565Z,10.51
2023-03-16T13:37:14.625Z,11.05
2023-03-16T13:39:41.747Z,11.02
2023-03-16T13:42:08.255Z,10.99
2023-03-16T13:44:39.786Z,9.92
2023-03-16T13:47:07.535Z,9.96
2023-03-16T13:49:43.463Z,9.98
2023-03-16T13:52:18.982Z,9.92
2023-03-16T13:54:45.532Z,10.19
2023-03-16T13:57:13.479Z,9.49
2023-03-16T13:59:43.673Z,9.29
2023-03-16T14:02:22.476Z,9.35
2023-03-16T14:04:49.036Z,9.51
2023-03-16T14:07:18.992Z,9.46
2023-03-16T14:09:47.039Z,9.47
2023-03-16T14:12:15.328Z,9.55
2023-03-16T14:14:42.519Z,9.70
2023-03-16T14:17:24.107Z,9.65
2023-03-16T14:19:57.673Z,9.64
2023-03-16T14:22:31.242Z,9.40
2023-03-16T14:25:00.809Z,9.09
2023-03-16T14:27:39.547Z,9.26
2023-03-16T14:30:15.416Z,9.49
2023-03-16T14:32:42.448Z,9.42
2023-03-16T14:35:17.890Z,9.00
2023-03-16T14:37:45.045Z,9.23
2023-03-16T14:40:32.270Z,8.92
2023-03-16T14:43:00.943Z,9.25
2023-03-16T14:45:32.125Z,9.05
2023-03-16T14:48:07.134Z,9.05
2023-03-16T14:50:34.814Z,8.76
2023-03-16T14:53:04.239Z,9.08
2023-03-16T14:55:31.560Z,8.84
2023-03-16T14:57:58.612Z,8.95
2023-03-16T15:00:26.353Z,9.05
2023-03-16T15:03:00.851Z,9.12
2023-03-16T15:05:42.822Z,9.04
2023-03-16T15:08:28.683Z,8.85
2023-03-16T15:11:00.854Z,9.01
2023-03-16T15:13:53.338Z,9.02
2023-03-16T15:16:22.091Z,8.88
2023-03-16T15:18:48.902Z,8.80
2023-03-16T15:21:20.664Z,8.77
2023-03-16T15:23:47.986Z,8.79
2023-03-16T15:26:18.245Z,8.84
2023-03-16T15:28:45.030Z,8.78
2023-03-16T15:31:14.088Z,8.65
2023-03-16T15:33:41.659Z,8.74
2023-03-16T15:36:20.445Z,8.66
2023-03-16T15:38:49.831Z,8.67
2023-03-16T15:41:17.141Z,8.45
2023-03-16T15:43:45.724Z,8.54
2023-03-16T15:46:15.001Z,8.58
2023-03-16T15:48:41.644Z,8.46
2023-03-16T15:51:21.900Z,8.43
2023-03-16T15:53:54.666Z,8.38
2023-03-16T15:56:29.217Z,8.35
2023-03-16T15:59:00.687Z,8.30
2023-03-16T16:01:32.083Z,8.31
2023-03-16T16:03:59.397Z,8.31
2023-03-16T16:06:27.785Z,8.39
2023-03-16T16:08:54.500Z,8.31
2023-03-16T16:11:28.278Z,8.30
2023-03-16T16:13:57.125Z,8.29
2023-03-16T16:16:27.279Z,8.33
2023-03-16T16:18:53.923Z,8.19
2023-03-16T16:21:24.869Z,8.15
2023-03-16T16:23:51.697Z,8.14
2023-03-16T16:26:49.878Z,8.10
2023-03-16T16:29:23.056Z,8.03
2023-03-16T16:31:52.045Z,7.98
2023-03-16T16:34:21.562Z,8.02
2023-03-16T16:36:48.985Z,7.98
2023-03-16T16:39:15.641Z,7.82
2023-03-16T16:41:42.931Z,7.93
2023-03-16T16:44:24.757Z,7.79
2023-03-16T16:46:52.248Z,7.78
2023-03-16T16:49:23.614Z,7.65
2023-03-16T16:51:51.549Z,7.57
2023-03-16T16:54:20.771Z,7.51
2023-03-16T16:56:48.902Z,7.43
2023-03-16T16:59:20.061Z,7.31
2023-03-16T17:01:48.087Z,7.32
2023-03-16T17:04:18.094Z,7.21
2023-03-16T17:06:46.175Z,7.11
2023-03-16T17:09:14.370Z,7.00
2023-03-16T17:11:42.638Z,6.97
2023-03-16T17:14:14.779Z,6.88
2023-03-16T17:16:41.328Z,6.74
2023-03-16T17:19:18.472Z,6.72
2023-03-16T17:21:45.604Z,6.69
2023-03-16T17:24:12.595Z,6.65
2023-03-16T17:26:43.904Z,6.56
2023-03-16T17:29:16.703Z,6.57
2023-03-16T17:31:44.546Z,6.58
2023-03-16T17:34:22.513Z,6.51
2023-03-16T17:36:49.600Z,6.46
2023-03-16T17:39:24.979Z,6.45
2023-03-16T17:41:56.043Z,6.35
2023-03-16T17:44:22.731Z,6.27
2023-03-16T17:46:49.354Z,6.29
2023-03-16T17:49:18.300Z,6.24
2023-03-16T17:51:46.597Z,6.18
2023-03-16T17:54:15.810Z,6.08
2023-03-16T17:56:42.602Z,6.07
2023-03-16T17:59:21.703Z,6.01
2023-03-16T18:01:48.539Z,5.89
2023-03-16T18:04:21.174Z,5.86
2023-03-16T18:06:48.178Z,5.83
2023-03-16T18:09:19.267Z,5.77
2023-03-16T18:11:49.920Z,5.70
2023-03-16T18:14:26.496Z,5.61
2023-03-16T18:16:54.639Z,5.55
2023-03-16T18:19:24.804Z,5.56
2023-03-16T18:21:53.649Z,5.55
2023-03-16T18:24:22.199Z,5.49
2023-03-16T18:26:49.029Z,5.52
2023-03-16T18:29:15.547Z,5.58
2023-03-16T18:31:42.889Z,5.62
2023-03-16T18:34:21.154Z,5.58
2023-03-16T18:36:47.646Z,5.44
2023-03-16T18:39:21.343Z,5.54
2023-03-16T18:41:48.234Z,5.53
2023-03-16T18:44:21.055Z,5.49
2023-03-16T18:46:50.108Z,5.48
2023-03-16T18:49:33.893Z,5.36
2023-03-16T18:52:00.865Z,5.38
2023-03-16T18:54:30.777Z,5.38
2023-03-16T18:57:04.260Z,5.36
2023-03-16T18:59:32.228Z,5.32
2023-03-16T19:01:58.899Z,5.32
2023-03-16T19:04:29.371Z,5.31
2023-03-16T19:06:56.869Z,5.35
2023-03-16T19:09:31.896Z,5.35
2023-03-16T19:11:59.449Z,5.40
2023-03-16T19:14:28.391Z,5.41
2023-03-16T19:16:55.432Z,5.40
2023-03-16T19:19:23.417Z,5.44
2023-03-16T19:21:53.886Z,5.44
2023-03-16T19:24:29.989Z,5.44
2023-03-16T19:26:57.052Z,5.44
2023-03-16T19:29:31.055Z,5.45
2023-03-16T19:31:58.746Z,5.47
2023-03-16T19:34:25.293Z,5.47
2023-03-16T19:36:52.681Z,5.47
2023-03-16T19:39:19.589Z,5.45
2023-03-16T19:41:49.840Z,5.43
2023-03-16T19:44:25.472Z,5.47
2023-03-16T19:46:52.682Z,5.41
2023-03-16T19:49:24.362Z,5.40
2023-03-16T19:51:53.117Z,5.35
2023-03-16T19:54:33.918Z,5.33
2023-03-16T19:57:07.144Z,5.36
2023-03-16T19:59:34.922Z,5.34
2023-03-16T20:02:01.641Z,5.19
2023-03-16T20:04:28.262Z,5.16
2023-03-16T20:06:54.846Z,5.13
2023-03-16T20:09:22.878Z,5.11
2023-03-16T20:11:49.987Z,5.14
2023-03-16T20:14:34.405Z,4.98
2023-03-16T20:17:01.105Z,5.02
2023-03-16T20:19:28.643Z,4.87
2023-03-16T20:21:55.378Z,4.89
2023-03-16T20:24:22.228Z,4.90
2023-03-16T20:26:51.412Z,4.67
2023-03-16T20:29:29.594Z,4.63
2023-03-16T20:31:56.858Z,4.58
2023-03-16T20:34:26.697Z,4.59
2023-03-16T20:36:53.584Z,4.68
2023-03-16T20:39:20.134Z,4.63
2023-03-16T20:41:46.750Z,4.58
2023-03-16T20:44:19.330Z,4.59
2023-03-16T20:46:47.037Z,4.60
2023-03-16T20:49:22.782Z,4.56
2023-03-16T20:51:50.398Z,4.56
2023-03-16T20:54:17.829Z,4.43
2023-03-16T20:56:44.619Z,4.44
2023-03-16T20:59:17.801Z,4.33
2023-03-16T21:01:45.606Z,4.22
2023-03-16T21:04:26.185Z,4.24
2023-03-16T21:06:53.659Z,4.23
2023-03-16T21:09:21.518Z,4.19
2023-03-16T21:11:48.689Z,4.10
2023-03-16T21:14:26.308Z,3.94
2023-03-16T21:16:54.050Z,4.02
2023-03-16T21:19:24.206Z,3.91
2023-03-16T21:21:51.461Z,3.93
2023-03-16T21:24:17.951Z,3.88
2023-03-16T21:26:45.027Z,3.89
2023-03-16T21:29:16.342Z,3.80
2023-03-16T21:31:43.682Z,3.69
2023-03-16T21:34:26.230Z,3.67
2023-03-16T21:36:52.799Z,3.69
2023-03-16T21:39:22.457Z,3.58
2023-03-16T21:41:50.774Z,3.56
2023-03-16T21:44:17.436Z,3.56
2023-03-16T21:46:47.474Z,3.58
2023-03-16T21:49:14.755Z,3.56
2023-03-16T21:51:43.335Z,3.52
2023-03-16T21:54:14.895Z,3.53
2023-03-16T21:56:42.414Z,3.45
2023-03-16T21:59:09.085Z,3.37
2023-03-16T22:01:44.899Z,3.33
2023-03-16T22:04:17.799Z,3.26
2023-03-16T22:06:46.023Z,3.31
2023-03-16T22:09:20.841Z,3.18
2023-03-16T22:11:47.459Z,3.23
2023-03-16T22:14:13.901Z,3.18
2023-03-16T22:16:41.439Z,3.12
2023-03-16T22:19:13.509Z,2.95
2023-03-16T22:21:42.779Z,2.94
2023-03-16T22:24:19.113Z,2.93
2023-03-16T22:26:46.911Z,2.94
2023-03-16T22:29:26.679Z,2.88
2023-03-16T22:31:59.610Z,2.81
2023-03-16T22:34:32.930Z,2.82
2023-03-16T22:37:01.337Z,2.68
2023-03-16T22:39:35.055Z,2.72
2023-03-16T22:42:01.746Z,2.69
2023-03-16T22:44:28.338Z,2.58
2023-03-16T22:46:54.793Z,2.62
2023-03-16T22:49:27.462Z,2.62
2023-03-16T22:51:56.544Z,2.51
2023-03-16T22:54:27.085Z,2.51
2023-03-16T22:56:53.803Z,2.52
2023-03-16T22:59:24.549Z,2.41
2023-03-16T23:01:51.115Z,2.49
2023-03-16T23:04:20.989Z,2.45
2023-03-16T23:06:49.469Z,2.41
2023-03-16T23:09:18.430Z,2.45
2023-03-16T23:11:47.438Z,2.40
2023-03-16T23:14:27.277Z,2.37
2023-03-16T23:16:54.085Z,2.37
2023-03-16T23:19:30.806Z,2.37
2023-03-16T23:22:00.746Z,2.34
2023-03-16T23:24:27.571Z,2.29
2023-03-16T23:26:54.669Z,2.25
2023-03-16T23:29:22.542Z,2.27
2023-03-16T23:31:49.170Z,2.27
2023-03-16T23:34:18.978Z,2.22
2023-03-16T23:36:45.698Z,2.21
2023-03-16T23:39:12.781Z,2.15
2023-03-16T23:41:43.081Z,2.10
2023-03-16T23:44:17.151Z,2.12
2023-03-16T23:46:43.653Z,2.08
2023-03-16T23:49:20.244Z,2.13
2023-03-16T23:51:46.977Z,2.08
2023-03-16T23:54:19.926Z,2.01
2023-03-16T23:56:46.606Z,1.97
2023-03-16T23:59:13.155Z,1.95
